CFG44SW EGCC-LTAC
Flight info
| Callsign | CFG44SW |
|---|---|
| Flight time | N/A |
| Altitude | 31000 |
| Route | DESIG L603 LAMSO DCT HMM/N0454F330 DCT WRB DCT KATCE DCT VEXIL DCT PEPIK DCT UVERA DCT BUDOP DCT ARTAT UP975 ERGUN/N0461F340 UW71 ILHAN |
| Aircraft | A321/M-SDE3FGHIRWY/LB1 |
Departure
| Time | N/A |
|---|---|
| Airport | Manchester Airport (EGCC) |
Arrival
| Time | 2026-05-04 14:14 |
|---|---|
| Airport | Esenboğa International Airport (LTAC) |
| Time | Latitude | Longitude | Altitude | Speed | Heading |
|---|---|---|---|---|---|
| 2026-05-04 13:30 | 41.73019 | 32.01504 | 32890 ft | 430 kts | 105° |
| 2026-05-04 13:30 | 41.71972 | 32.05251 | 32893 ft | 430 kts | 105° |
| 2026-05-04 13:31 | 41.69874 | 32.12758 | 32895 ft | 430 kts | 105° |
| 2026-05-04 13:31 | 41.67781 | 32.20260 | 32895 ft | 430 kts | 105° |
| 2026-05-04 13:32 | 41.65682 | 32.27755 | 32934 ft | 430 kts | 105° |
| 2026-05-04 13:32 | 41.63586 | 32.35252 | 32915 ft | 430 kts | 105° |
| 2026-05-04 13:33 | 41.61480 | 32.42732 | 32906 ft | 430 kts | 105° |
| 2026-05-04 13:33 | 41.59371 | 32.50156 | 32894 ft | 430 kts | 105° |
| 2026-05-04 13:34 | 41.57254 | 32.57620 | 32905 ft | 430 kts | 105° |
| 2026-05-04 13:34 | 41.55131 | 32.65090 | 32901 ft | 430 kts | 105° |
| 2026-05-04 13:35 | 41.51938 | 32.76280 | 32870 ft | 430 kts | 105° |
| 2026-05-04 13:36 | 41.49797 | 32.83743 | 32872 ft | 430 kts | 106° |
| 2026-05-04 13:36 | 41.47506 | 32.91137 | 32866 ft | 436 kts | 115° |
| 2026-05-04 13:36 | 41.45746 | 32.94463 | 32862 ft | 444 kts | 127° |
| 2026-05-04 13:37 | 41.43459 | 32.97263 | 32850 ft | 452 kts | 139° |
| 2026-05-04 13:37 | 41.40715 | 32.99391 | 32847 ft | 462 kts | 152° |
| 2026-05-04 13:37 | 41.37631 | 33.00699 | 32850 ft | 471 kts | 165° |
| 2026-05-04 13:38 | 41.31111 | 33.01942 | 32880 ft | 474 kts | 167° |
| 2026-05-04 13:38 | 41.24563 | 33.03151 | 32865 ft | 475 kts | 168° |
| 2026-05-04 13:39 | 41.18014 | 33.04368 | 32865 ft | 475 kts | 168° |
| 2026-05-04 13:39 | 41.11504 | 33.05571 | 32862 ft | 475 kts | 168° |
| 2026-05-04 13:40 | 41.04934 | 33.06780 | 32642 ft | 479 kts | 168° |
| 2026-05-04 13:40 | 41.01633 | 33.07388 | 32409 ft | 477 kts | 169° |
| 2026-05-04 13:40 | 40.98355 | 33.07990 | 32156 ft | 474 kts | 168° |
| 2026-05-04 13:40 | 40.95093 | 33.08588 | 31910 ft | 474 kts | 168° |
| 2026-05-04 13:41 | 40.91820 | 33.09192 | 31653 ft | 474 kts | 168° |
| 2026-05-04 13:41 | 40.88544 | 33.09796 | 31403 ft | 477 kts | 168° |
| 2026-05-04 13:41 | 40.85251 | 33.10401 | 31162 ft | 478 kts | 168° |
| 2026-05-04 13:42 | 40.78571 | 33.10456 | 30663 ft | 489 kts | 189° |
| 2026-05-04 13:42 | 40.75333 | 33.09059 | 30444 ft | 492 kts | 204° |
| 2026-05-04 13:42 | 40.72410 | 33.06732 | 30215 ft | 492 kts | 218° |
| 2026-05-04 13:42 | 40.69948 | 33.03615 | 29985 ft | 492 kts | 231° |
| 2026-05-04 13:43 | 40.67996 | 32.99914 | 29522 ft | 491 kts | 238° |
| 2026-05-04 13:43 | 40.66159 | 32.96127 | 28678 ft | 491 kts | 238° |
| 2026-05-04 13:43 | 40.64322 | 32.92331 | 27759 ft | 493 kts | 238° |
| 2026-05-04 13:43 | 40.62346 | 32.88622 | 26833 ft | 496 kts | 231° |
| 2026-05-04 13:44 | 40.59991 | 32.85315 | 26031 ft | 495 kts | 223° |
| 2026-05-04 13:44 | 40.57340 | 32.82524 | 25264 ft | 493 kts | 215° |
| 2026-05-04 13:44 | 40.54541 | 32.79917 | 24468 ft | 492 kts | 215° |
| 2026-05-04 13:44 | 40.51762 | 32.77319 | 23929 ft | 485 kts | 214° |
| 2026-05-04 13:45 | 40.49057 | 32.74786 | 23675 ft | 466 kts | 214° |
| 2026-05-04 13:45 | 40.46493 | 32.72381 | 23495 ft | 440 kts | 215° |
| 2026-05-04 13:45 | 40.44050 | 32.70095 | 22919 ft | 427 kts | 215° |
| 2026-05-04 13:45 | 40.41645 | 32.67847 | 22341 ft | 423 kts | 216° |
| 2026-05-04 13:46 | 40.39278 | 32.65683 | 22054 ft | 407 kts | 211° |
| 2026-05-04 13:46 | 40.36745 | 32.64184 | 21790 ft | 396 kts | 196° |
| 2026-05-04 13:46 | 40.34058 | 32.63578 | 21354 ft | 389 kts | 180° |
| 2026-05-04 13:46 | 40.31388 | 32.63896 | 20914 ft | 383 kts | 166° |
| 2026-05-04 13:47 | 40.28895 | 32.65059 | 20450 ft | 379 kts | 151° |
| 2026-05-04 13:47 | 40.26723 | 32.66965 | 19921 ft | 376 kts | 136° |
| 2026-05-04 13:47 | 40.25001 | 32.69465 | 19641 ft | 366 kts | 123° |
| 2026-05-04 13:47 | 40.23516 | 32.72158 | 19248 ft | 363 kts | 123° |
| 2026-05-04 13:48 | 40.22051 | 32.74796 | 18839 ft | 361 kts | 123° |
| 2026-05-04 13:48 | 40.20582 | 32.77443 | 18484 ft | 358 kts | 123° |
| 2026-05-04 13:48 | 40.19529 | 32.80328 | 18152 ft | 350 kts | 99° |
| 2026-05-04 13:48 | 40.19551 | 32.83447 | 17693 ft | 343 kts | 73° |
| 2026-05-04 13:49 | 40.20643 | 32.86153 | 17214 ft | 337 kts | 47° |
| 2026-05-04 13:49 | 40.22377 | 32.88211 | 16648 ft | 338 kts | 37° |
| 2026-05-04 13:49 | 40.24363 | 32.89892 | 16098 ft | 341 kts | 31° |
| 2026-05-04 13:49 | 40.26417 | 32.91439 | 15639 ft | 341 kts | 30° |
| 2026-05-04 13:50 | 40.28457 | 32.93008 | 15208 ft | 339 kts | 32° |
| 2026-05-04 13:50 | 40.30441 | 32.94654 | 14794 ft | 337 kts | 34° |
| 2026-05-04 13:50 | 40.32384 | 32.96387 | 14385 ft | 336 kts | 36° |
| 2026-05-04 13:50 | 40.34280 | 32.98163 | 13993 ft | 334 kts | 37° |
| 2026-05-04 13:51 | 40.36147 | 32.99962 | 13590 ft | 333 kts | 37° |
| 2026-05-04 13:51 | 40.38004 | 33.01770 | 13192 ft | 329 kts | 38° |
| 2026-05-04 13:51 | 40.39804 | 33.03520 | 13024 ft | 314 kts | 37° |
| 2026-05-04 13:51 | 40.41550 | 33.05205 | 12689 ft | 309 kts | 37° |
| 2026-05-04 13:52 | 40.44985 | 33.08494 | 12044 ft | 302 kts | 37° |
| 2026-05-04 13:52 | 40.46660 | 33.10083 | 11887 ft | 293 kts | 37° |
| 2026-05-04 13:52 | 40.48306 | 33.11640 | 11611 ft | 289 kts | 36° |
| 2026-05-04 13:53 | 40.49755 | 33.13420 | 11313 ft | 284 kts | 57° |
| 2026-05-04 13:53 | 40.50446 | 33.15771 | 11113 ft | 273 kts | 86° |
| 2026-05-04 13:53 | 40.50235 | 33.18102 | 10982 ft | 254 kts | 113° |
| 2026-05-04 13:54 | 40.48028 | 33.21585 | 10150 ft | 251 kts | 143° |
| 2026-05-04 13:54 | 40.46451 | 33.22528 | 9720 ft | 251 kts | 164° |
| 2026-05-04 13:54 | 40.43025 | 33.22961 | 9013 ft | 251 kts | 193° |
| 2026-05-04 13:55 | 40.41334 | 33.22389 | 8696 ft | 251 kts | 196° |
| 2026-05-04 13:55 | 40.37967 | 33.21178 | 8076 ft | 251 kts | 196° |
| 2026-05-04 13:55 | 40.36297 | 33.20582 | 7758 ft | 247 kts | 197° |
| 2026-05-04 13:56 | 40.34710 | 33.19804 | 7473 ft | 240 kts | 205° |
| 2026-05-04 13:56 | 40.33197 | 33.18919 | 7216 ft | 236 kts | 206° |
| 2026-05-04 13:56 | 40.30538 | 33.16651 | 6747 ft | 222 kts | 221° |
| 2026-05-04 13:57 | 40.29331 | 33.15466 | 6483 ft | 211 kts | 220° |
| 2026-05-04 13:57 | 40.28185 | 33.14363 | 6252 ft | 196 kts | 220° |
| 2026-05-04 13:58 | 40.25102 | 33.11406 | 5860 ft | 178 kts | 220° |
| 2026-05-04 13:58 | 40.23172 | 33.09558 | 5429 ft | 168 kts | 220° |
| 2026-05-04 13:58 | 40.22234 | 33.08660 | 5218 ft | 166 kts | 220° |
| 2026-05-04 13:59 | 40.21304 | 33.07770 | 4989 ft | 165 kts | 221° |
| 2026-05-04 13:59 | 40.20378 | 33.06884 | 4749 ft | 165 kts | 219° |
| 2026-05-04 13:59 | 40.18535 | 33.05123 | 4249 ft | 164 kts | 220° |
| 2026-05-04 14:00 | 40.17612 | 33.04240 | 3999 ft | 164 kts | 220° |
| 2026-05-04 14:00 | 40.15779 | 33.02491 | 3564 ft | 163 kts | 220° |
| 2026-05-04 14:00 | 40.14871 | 33.01624 | 3366 ft | 160 kts | 223° |
| 2026-05-04 14:01 | 40.13971 | 33.00765 | 3154 ft | 160 kts | 222° |
| 2026-05-04 14:01 | 40.13071 | 32.99901 | 3519 ft | 161 kts | 223° |
| 2026-05-04 14:01 | 40.11213 | 32.98092 | 4762 ft | 177 kts | 221° |
| 2026-05-04 14:02 | 40.10180 | 32.97056 | 4930 ft | 197 kts | 221° |
| 2026-05-04 14:02 | 40.09050 | 32.95884 | 5057 ft | 218 kts | 222° |
| 2026-05-04 14:02 | 40.07803 | 32.94580 | 5274 ft | 240 kts | 223° |
| 2026-05-04 14:02 | 40.06480 | 32.93193 | 6063 ft | 245 kts | 222° |
| 2026-05-04 14:03 | 40.05602 | 32.92252 | 6574 ft | 248 kts | 222° |
| 2026-05-04 14:03 | 40.03803 | 32.90317 | 7510 ft | 253 kts | 223° |
| 2026-05-04 14:03 | 40.02897 | 32.89350 | 7962 ft | 255 kts | 221° |
| 2026-05-04 14:03 | 40.01530 | 32.87856 | 8644 ft | 259 kts | 223° |
| 2026-05-04 14:04 | 39.98698 | 32.84842 | 9863 ft | 268 kts | 220° |
| 2026-05-04 14:04 | 39.97270 | 32.83294 | 9997 ft | 266 kts | 221° |
| 2026-05-04 14:04 | 39.95845 | 32.81758 | 10023 ft | 266 kts | 224° |
| 2026-05-04 14:05 | 39.93027 | 32.78657 | 10031 ft | 266 kts | 222° |
| 2026-05-04 14:05 | 39.91750 | 32.76951 | 10021 ft | 261 kts | 240° |
| 2026-05-04 14:05 | 39.91120 | 32.74773 | 10019 ft | 255 kts | 266° |
| 2026-05-04 14:06 | 39.91211 | 32.72534 | 9724 ft | 245 kts | 290° |
| 2026-05-04 14:06 | 39.91972 | 32.70597 | 9349 ft | 239 kts | 312° |
| 2026-05-04 14:06 | 39.93227 | 32.69227 | 9068 ft | 235 kts | 333° |
| 2026-05-04 14:06 | 39.94763 | 32.68596 | 8893 ft | 230 kts | 353° |
| 2026-05-04 14:07 | 39.96335 | 32.68759 | 8746 ft | 224 kts | 14° |
| 2026-05-04 14:07 | 39.97803 | 32.69360 | 8550 ft | 217 kts | 15° |
| 2026-05-04 14:07 | 39.99232 | 32.69941 | 8268 ft | 213 kts | 15° |
| 2026-05-04 14:07 | 40.00641 | 32.70510 | 7964 ft | 211 kts | 14° |
| 2026-05-04 14:08 | 40.02015 | 32.71149 | 7961 ft | 212 kts | 27° |
| 2026-05-04 14:08 | 40.03115 | 32.72466 | 8041 ft | 221 kts | 54° |
| 2026-05-04 14:08 | 40.03595 | 32.74395 | 7990 ft | 231 kts | 85° |
| 2026-05-04 14:08 | 40.03274 | 32.76381 | 7781 ft | 224 kts | 114° |
| 2026-05-04 14:09 | 40.01489 | 32.79612 | 7090 ft | 218 kts | 124° |
| 2026-05-04 14:09 | 40.00594 | 32.81195 | 6734 ft | 216 kts | 125° |
| 2026-05-04 14:10 | 39.99062 | 32.84473 | 6082 ft | 208 kts | 96° |
| 2026-05-04 14:10 | 39.99241 | 32.86275 | 5774 ft | 199 kts | 59° |
| 2026-05-04 14:10 | 40.00105 | 32.87590 | 5511 ft | 191 kts | 32° |
| 2026-05-04 14:10 | 40.01155 | 32.88585 | 5341 ft | 180 kts | 31° |
| 2026-05-04 14:11 | 40.02144 | 32.89521 | 5114 ft | 173 kts | 31° |
| 2026-05-04 14:11 | 40.04081 | 32.91357 | 4790 ft | 167 kts | 30° |
| 2026-05-04 14:11 | 40.05008 | 32.92237 | 4710 ft | 165 kts | 31° |
| 2026-05-04 14:12 | 40.05928 | 32.93109 | 4539 ft | 163 kts | 31° |
| 2026-05-04 14:12 | 40.06842 | 32.93977 | 4321 ft | 162 kts | 30° |
| 2026-05-04 14:12 | 40.08650 | 32.95695 | 3827 ft | 160 kts | 29° |
| 2026-05-04 14:13 | 40.09548 | 32.96549 | 3598 ft | 159 kts | 31° |
| 2026-05-04 14:13 | 40.10443 | 32.97401 | 3387 ft | 159 kts | 32° |
| 2026-05-04 14:13 | 40.11324 | 32.98240 | 3178 ft | 158 kts | 33° |
| 2026-05-04 14:13 | 40.12175 | 32.99035 | 3117 ft | 132 kts | 31° |
| 2026-05-04 14:14 | 40.12758 | 32.99595 | 3123 ft | 80 kts | 38° |
| 2026-05-04 14:14 | 40.13047 | 32.99993 | 3126 ft | 15 kts | 62° |
| 2026-05-04 14:14 | 40.13089 | 33.00104 | 3126 ft | 13 kts | 68° |
| 2026-05-04 14:15 | 40.13007 | 33.00150 | 3124 ft | 16 kts | 217° |
| 2026-05-04 14:15 | 40.12842 | 32.99990 | 3122 ft | 14 kts | 216° |
| 2026-05-04 14:16 | 40.12692 | 32.99847 | 3123 ft | 14 kts | 215° |
| 2026-05-04 14:16 | 40.12572 | 32.99735 | 3122 ft | 28 kts | 216° |
| 2026-05-04 14:17 | 40.12238 | 32.99415 | 3118 ft | 30 kts | 216° |
| 2026-05-04 14:17 | 40.12074 | 32.99258 | 3116 ft | 29 kts | 216° |
| 2026-05-04 14:17 | 40.11835 | 32.99040 | 3114 ft | 10 kts | 198° |
| 2026-05-04 14:18 | 40.11784 | 32.99076 | 3113 ft | 8 kts | 131° |
| 2026-05-04 14:18 | 40.11702 | 32.99130 | 3113 ft | 5 kts | 164° |
| 2026-05-04 14:19 | 40.11635 | 32.99178 | 3113 ft | 0 kts | 149° |